sensor_id;sensor_type;location;lat;lon;timestamp;temperature;humidity
23385;DHT22;11865;45.394;10.978;2023-12-20T00:01:12;2.50;99.90
23385;DHT22;11865;45.394;10.978;2023-12-20T00:03:39;2.80;99.90
23385;DHT22;11865;45.394;10.978;2023-12-20T00:06:09;2.60;99.90
23385;DHT22;11865;45.394;10.978;2023-12-20T00:08:37;3.00;99.90
23385;DHT22;11865;45.394;10.978;2023-12-20T00:11:05;2.90;99.90
23385;DHT22;11865;45.394;10.978;2023-12-20T00:13:32;3.20;99.90
23385;DHT22;11865;45.394;10.978;2023-12-20T00:16:00;3.50;99.90
23385;DHT22;11865;45.394;10.978;2023-12-20T00:18:28;3.70;99.90
23385;DHT22;11865;45.394;10.978;2023-12-20T00:20:55;3.40;99.90
23385;DHT22;11865;45.394;10.978;2023-12-20T00:23:23;3.50;99.90
23385;DHT22;11865;45.394;10.978;2023-12-20T00:25:51;3.70;99.90
23385;DHT22;11865;45.394;10.978;2023-12-20T00:28:18;3.70;99.90
23385;DHT22;11865;45.394;10.978;2023-12-20T00:30:46;3.10;99.90
23385;DHT22;11865;45.394;10.978;2023-12-20T00:33:13;2.40;99.90
23385;DHT22;11865;45.394;10.978;2023-12-20T00:35:41;2.00;99.90
23385;DHT22;11865;45.394;10.978;2023-12-20T00:38:09;1.80;99.90
23385;DHT22;11865;45.394;10.978;2023-12-20T00:40:37;1.60;99.90
23385;DHT22;11865;45.394;10.978;2023-12-20T00:43:05;1.50;99.90
23385;DHT22;11865;45.394;10.978;2023-12-20T00:45:32;1.40;99.90
23385;DHT22;11865;45.394;10.978;2023-12-20T00:48:00;1.30;99.90
23385;DHT22;11865;45.394;10.978;2023-12-20T00:50:27;1.30;99.90
23385;DHT22;11865;45.394;10.978;2023-12-20T00:52:57;1.30;99.90
23385;DHT22;11865;45.394;10.978;2023-12-20T00:55:24;1.40;99.90
23385;DHT22;11865;45.394;10.978;2023-12-20T00:57:52;1.30;99.90
23385;DHT22;11865;45.394;10.978;2023-12-20T01:00:20;1.20;99.90
23385;DHT22;11865;45.394;10.978;2023-12-20T01:02:48;1.20;99.90
23385;DHT22;11865;45.394;10.978;2023-12-20T01:05:18;1.00;99.90
23385;DHT22;11865;45.394;10.978;2023-12-20T01:07:46;1.10;99.90
23385;DHT22;11865;45.394;10.978;2023-12-20T01:10:14;1.20;99.90
23385;DHT22;11865;45.394;10.978;2023-12-20T01:12:43;1.30;99.90
23385;DHT22;11865;45.394;10.978;2023-12-20T01:15:11;1.10;99.90
23385;DHT22;11865;45.394;10.978;2023-12-20T01:17:38;1.10;99.90
23385;DHT22;11865;45.394;10.978;2023-12-20T01:20:06;1.10;99.90
23385;DHT22;11865;45.394;10.978;2023-12-20T01:22:34;1.00;99.90
23385;DHT22;11865;45.394;10.978;2023-12-20T01:25:03;1.40;99.90
23385;DHT22;11865;45.394;10.978;2023-12-20T01:27:31;1.60;99.90
23385;DHT22;11865;45.394;10.978;2023-12-20T01:29:58;1.30;99.90
23385;DHT22;11865;45.394;10.978;2023-12-20T01:32:26;1.20;99.90
23385;DHT22;11865;45.394;10.978;2023-12-20T01:34:53;0.90;99.90
23385;DHT22;11865;45.394;10.978;2023-12-20T01:37:24;0.90;99.90
23385;DHT22;11865;45.394;10.978;2023-12-20T01:39:52;0.90;99.90
23385;DHT22;11865;45.394;10.978;2023-12-20T01:42:20;0.90;99.90
23385;DHT22;11865;45.394;10.978;2023-12-20T01:44:48;1.00;99.90
23385;DHT22;11865;45.394;10.978;2023-12-20T01:47:15;0.90;99.90
23385;DHT22;11865;45.394;10.978;2023-12-20T01:49:43;1.00;99.90
23385;DHT22;11865;45.394;10.978;2023-12-20T01:52:11;1.00;99.90
23385;DHT22;11865;45.394;10.978;2023-12-20T01:54:41;1.00;99.90
23385;DHT22;11865;45.394;10.978;2023-12-20T01:57:10;0.90;99.90
23385;DHT22;11865;45.394;10.978;2023-12-20T01:59:39;0.70;99.90
23385;DHT22;11865;45.394;10.978;2023-12-20T02:02:07;0.80;99.90
23385;DHT22;11865;45.394;10.978;2023-12-20T02:04:35;0.90;99.90
23385;DHT22;11865;45.394;10.978;2023-12-20T02:07:03;0.90;99.90
23385;DHT22;11865;45.394;10.978;2023-12-20T02:09:32;1.20;99.90
23385;DHT22;11865;45.394;10.978;2023-12-20T02:11:59;1.30;99.90
23385;DHT22;11865;45.394;10.978;2023-12-20T02:14:27;1.40;99.90
23385;DHT22;11865;45.394;10.978;2023-12-20T02:16:55;1.40;99.90
23385;DHT22;11865;45.394;10.978;2023-12-20T02:19:22;1.50;99.90
23385;DHT22;11865;45.394;10.978;2023-12-20T02:21:50;1.00;99.90
23385;DHT22;11865;45.394;10.978;2023-12-20T02:24:17;1.00;99.90
23385;DHT22;11865;45.394;10.978;2023-12-20T02:26:45;0.90;99.90
23385;DHT22;11865;45.394;10.978;2023-12-20T02:29:13;0.90;99.90
23385;DHT22;11865;45.394;10.978;2023-12-20T02:31:41;1.00;99.90
23385;DHT22;11865;45.394;10.978;2023-12-20T02:34:08;1.30;99.90
23385;DHT22;11865;45.394;10.978;2023-12-20T02:36:36;1.20;99.90
23385;DHT22;11865;45.394;10.978;2023-12-20T02:39:03;1.10;99.90
23385;DHT22;11865;45.394;10.978;2023-12-20T02:41:31;1.00;99.90
23385;DHT22;11865;45.394;10.978;2023-12-20T02:43:59;1.20;99.90
23385;DHT22;11865;45.394;10.978;2023-12-20T02:46:26;0.80;99.90
23385;DHT22;11865;45.394;10.978;2023-12-20T02:48:54;0.80;99.90
23385;DHT22;11865;45.394;10.978;2023-12-20T02:51:21;0.80;99.90
23385;DHT22;11865;45.394;10.978;2023-12-20T02:53:49;0.80;99.90
23385;DHT22;11865;45.394;10.978;2023-12-20T02:56:16;0.80;99.90
23385;DHT22;11865;45.394;10.978;2023-12-20T02:58:44;0.60;99.90
23385;DHT22;11865;45.394;10.978;2023-12-20T03:01:11;0.60;99.90
23385;DHT22;11865;45.394;10.978;2023-12-20T03:03:39;0.90;99.90
23385;DHT22;11865;45.394;10.978;2023-12-20T03:06:06;0.90;99.90
23385;DHT22;11865;45.394;10.978;2023-12-20T03:08:34;0.80;99.90
23385;DHT22;11865;45.394;10.978;2023-12-20T03:11:02;0.80;99.90
23385;DHT22;11865;45.394;10.978;2023-12-20T03:13:29;1.10;99.90
23385;DHT22;11865;45.394;10.978;2023-12-20T03:15:57;1.60;99.90
23385;DHT22;11865;45.394;10.978;2023-12-20T03:18:24;1.80;99.90
23385;DHT22;11865;45.394;10.978;2023-12-20T03:20:52;2.20;99.90
23385;DHT22;11865;45.394;10.978;2023-12-20T03:23:19;2.20;99.90
23385;DHT22;11865;45.394;10.978;2023-12-20T03:25:47;2.40;99.90
23385;DHT22;11865;45.394;10.978;2023-12-20T03:28:15;2.20;99.90
23385;DHT22;11865;45.394;10.978;2023-12-20T03:30:43;2.30;99.90
23385;DHT22;11865;45.394;10.978;2023-12-20T03:33:11;1.90;99.90
23385;DHT22;11865;45.394;10.978;2023-12-20T03:35:38;1.90;99.90
23385;DHT22;11865;45.394;10.978;2023-12-20T03:38:06;1.70;99.90
23385;DHT22;11865;45.394;10.978;2023-12-20T03:40:34;1.50;99.90
23385;DHT22;11865;45.394;10.978;2023-12-20T03:43:01;1.60;99.90
23385;DHT22;11865;45.394;10.978;2023-12-20T03:45:29;1.80;99.90
23385;DHT22;11865;45.394;10.978;2023-12-20T03:47:56;1.80;99.90
23385;DHT22;11865;45.394;10.978;2023-12-20T03:50:24;1.60;99.90
23385;DHT22;11865;45.394;10.978;2023-12-20T03:52:52;1.70;99.90
23385;DHT22;11865;45.394;10.978;2023-12-20T03:55:19;1.60;99.90
23385;DHT22;11865;45.394;10.978;2023-12-20T03:57:47;1.60;99.90
23385;DHT22;11865;45.394;10.978;2023-12-20T04:00:15;1.70;99.90
23385;DHT22;11865;45.394;10.978;2023-12-20T04:02:43;1.80;99.90
23385;DHT22;11865;45.394;10.978;2023-12-20T04:05:10;2.50;99.90
23385;DHT22;11865;45.394;10.978;2023-12-20T04:07:38;2.50;99.90
23385;DHT22;11865;45.394;10.978;2023-12-20T04:10:07;2.30;99.90
23385;DHT22;11865;45.394;10.978;2023-12-20T04:12:35;2.20;99.90
23385;DHT22;11865;45.394;10.978;2023-12-20T04:15:03;2.00;99.90
23385;DHT22;11865;45.394;10.978;2023-12-20T04:17:36;1.90;99.90
23385;DHT22;11865;45.394;10.978;2023-12-20T04:20:04;1.80;99.90
23385;DHT22;11865;45.394;10.978;2023-12-20T04:22:32;1.80;99.90
23385;DHT22;11865;45.394;10.978;2023-12-20T04:25:00;1.80;99.90
23385;DHT22;11865;45.394;10.978;2023-12-20T04:27:27;1.70;99.90
23385;DHT22;11865;45.394;10.978;2023-12-20T04:29:55;1.90;99.90
23385;DHT22;11865;45.394;10.978;2023-12-20T04:32:23;2.30;99.90
23385;DHT22;11865;45.394;10.978;2023-12-20T04:34:50;2.20;99.90
23385;DHT22;11865;45.394;10.978;2023-12-20T04:37:18;2.00;99.90
23385;DHT22;11865;45.394;10.978;2023-12-20T04:39:46;2.00;99.90
23385;DHT22;11865;45.394;10.978;2023-12-20T04:42:13;2.00;99.90
23385;DHT22;11865;45.394;10.978;2023-12-20T04:44:41;2.10;99.90
23385;DHT22;11865;45.394;10.978;2023-12-20T04:47:08;2.20;99.90
23385;DHT22;11865;45.394;10.978;2023-12-20T04:49:36;2.00;99.90
23385;DHT22;11865;45.394;10.978;2023-12-20T04:52:03;2.10;99.90
23385;DHT22;11865;45.394;10.978;2023-12-20T04:54:31;2.90;99.90
23385;DHT22;11865;45.394;10.978;2023-12-20T04:56:59;3.20;99.90
23385;DHT22;11865;45.394;10.978;2023-12-20T04:59:26;3.50;99.90
23385;DHT22;11865;45.394;10.978;2023-12-20T05:01:54;3.50;99.90
23385;DHT22;11865;45.394;10.978;2023-12-20T05:04:21;3.20;99.90
23385;DHT22;11865;45.394;10.978;2023-12-20T05:06:49;3.20;99.90
23385;DHT22;11865;45.394;10.978;2023-12-20T05:09:17;2.80;99.90
23385;DHT22;11865;45.394;10.978;2023-12-20T05:11:45;2.70;99.90
23385;DHT22;11865;45.394;10.978;2023-12-20T05:14:12;2.30;99.90
23385;DHT22;11865;45.394;10.978;2023-12-20T05:16:40;2.00;99.90
23385;DHT22;11865;45.394;10.978;2023-12-20T05:19:07;2.00;99.90
23385;DHT22;11865;45.394;10.978;2023-12-20T05:21:35;2.40;99.90
23385;DHT22;11865;45.394;10.978;2023-12-20T05:24:03;2.90;99.90
23385;DHT22;11865;45.394;10.978;2023-12-20T05:26:31;2.80;99.90
23385;DHT22;11865;45.394;10.978;2023-12-20T05:28:58;3.10;99.90
23385;DHT22;11865;45.394;10.978;2023-12-20T05:31:26;3.70;99.90
23385;DHT22;11865;45.394;10.978;2023-12-20T05:33:53;4.00;99.90
23385;DHT22;11865;45.394;10.978;2023-12-20T05:36:21;4.20;99.90
23385;DHT22;11865;45.394;10.978;2023-12-20T05:38:49;4.30;99.90
23385;DHT22;11865;45.394;10.978;2023-12-20T05:41:16;4.40;99.90
23385;DHT22;11865;45.394;10.978;2023-12-20T05:43:44;4.10;99.90
23385;DHT22;11865;45.394;10.978;2023-12-20T05:46:11;4.00;99.90
23385;DHT22;11865;45.394;10.978;2023-12-20T05:48:39;4.10;99.90
23385;DHT22;11865;45.394;10.978;2023-12-20T05:51:07;3.60;99.90
23385;DHT22;11865;45.394;10.978;2023-12-20T05:53:36;3.10;99.90
23385;DHT22;11865;45.394;10.978;2023-12-20T05:56:04;2.70;99.90
23385;DHT22;11865;45.394;10.978;2023-12-20T05:58:33;2.70;99.90
23385;DHT22;11865;45.394;10.978;2023-12-20T06:01:04;2.60;99.90
23385;DHT22;11865;45.394;10.978;2023-12-20T06:03:32;2.40;99.90
23385;DHT22;11865;45.394;10.978;2023-12-20T06:06:05;3.10;99.90
23385;DHT22;11865;45.394;10.978;2023-12-20T06:08:43;3.10;99.90
23385;DHT22;11865;45.394;10.978;2023-12-20T06:11:11;2.80;99.90
23385;DHT22;11865;45.394;10.978;2023-12-20T06:13:40;3.20;99.90
23385;DHT22;11865;45.394;10.978;2023-12-20T06:16:07;2.90;99.90
23385;DHT22;11865;45.394;10.978;2023-12-20T06:18:35;2.80;99.90
23385;DHT22;11865;45.394;10.978;2023-12-20T06:21:04;2.70;99.90
23385;DHT22;11865;45.394;10.978;2023-12-20T06:23:32;2.60;99.90
23385;DHT22;11865;45.394;10.978;2023-12-20T06:25:59;2.50;99.90
23385;DHT22;11865;45.394;10.978;2023-12-20T06:28:27;2.40;99.90
23385;DHT22;11865;45.394;10.978;2023-12-20T06:30:55;2.30;99.90
23385;DHT22;11865;45.394;10.978;2023-12-20T06:33:24;2.50;99.90
23385;DHT22;11865;45.394;10.978;2023-12-20T06:35:52;2.50;99.90
23385;DHT22;11865;45.394;10.978;2023-12-20T06:38:20;2.50;99.90
23385;DHT22;11865;45.394;10.978;2023-12-20T06:40:47;2.40;99.90
23385;DHT22;11865;45.394;10.978;2023-12-20T06:43:15;2.30;99.90
23385;DHT22;11865;45.394;10.978;2023-12-20T06:46:02;2.20;99.90
23385;DHT22;11865;45.394;10.978;2023-12-20T06:48:30;2.40;99.90
23385;DHT22;11865;45.394;10.978;2023-12-20T06:51:00;2.70;99.90
23385;DHT22;11865;45.394;10.978;2023-12-20T06:53:29;2.70;99.90
23385;DHT22;11865;45.394;10.978;2023-12-20T06:55:57;2.70;99.90
23385;DHT22;11865;45.394;10.978;2023-12-20T06:58:24;2.70;99.90
23385;DHT22;11865;45.394;10.978;2023-12-20T07:00:52;2.70;99.90
23385;DHT22;11865;45.394;10.978;2023-12-20T07:03:19;2.80;99.90
23385;DHT22;11865;45.394;10.978;2023-12-20T07:05:47;2.80;99.90
23385;DHT22;11865;45.394;10.978;2023-12-20T07:08:15;2.80;99.90
23385;DHT22;11865;45.394;10.978;2023-12-20T07:10:42;2.80;99.90
23385;DHT22;11865;45.394;10.978;2023-12-20T07:13:10;2.90;99.90
23385;DHT22;11865;45.394;10.978;2023-12-20T07:15:38;3.20;99.90
23385;DHT22;11865;45.394;10.978;2023-12-20T07:18:05;3.30;99.90
23385;DHT22;11865;45.394;10.978;2023-12-20T07:20:33;3.30;99.90
23385;DHT22;11865;45.394;10.978;2023-12-20T07:23:01;3.20;99.90
23385;DHT22;11865;45.394;10.978;2023-12-20T07:25:29;3.20;99.90
23385;DHT22;11865;45.394;10.978;2023-12-20T07:28:00;3.00;99.90
23385;DHT22;11865;45.394;10.978;2023-12-20T07:30:28;3.30;99.90
23385;DHT22;11865;45.394;10.978;2023-12-20T07:32:56;3.60;99.90
23385;DHT22;11865;45.394;10.978;2023-12-20T07:35:24;3.70;99.90
23385;DHT22;11865;45.394;10.978;2023-12-20T07:37:53;3.70;99.90
23385;DHT22;11865;45.394;10.978;2023-12-20T07:40:21;3.60;99.90
23385;DHT22;11865;45.394;10.978;2023-12-20T07:42:48;3.40;99.90
23385;DHT22;11865;45.394;10.978;2023-12-20T07:45:17;3.60;99.90
23385;DHT22;11865;45.394;10.978;2023-12-20T07:47:44;3.60;99.90
23385;DHT22;11865;45.394;10.978;2023-12-20T07:50:12;3.80;99.90
23385;DHT22;11865;45.394;10.978;2023-12-20T07:52:40;3.80;99.90
23385;DHT22;11865;45.394;10.978;2023-12-20T07:55:08;3.90;99.90
23385;DHT22;11865;45.394;10.978;2023-12-20T07:57:36;3.90;99.90
23385;DHT22;11865;45.394;10.978;2023-12-20T08:00:04;4.10;99.90
23385;DHT22;11865;45.394;10.978;2023-12-20T08:02:32;4.30;99.90
23385;DHT22;11865;45.394;10.978;2023-12-20T08:05:00;4.30;99.90
23385;DHT22;11865;45.394;10.978;2023-12-20T08:07:27;4.30;99.90
23385;DHT22;11865;45.394;10.978;2023-12-20T08:09:55;4.40;99.90
23385;DHT22;11865;45.394;10.978;2023-12-20T08:12:24;4.60;99.90
23385;DHT22;11865;45.394;10.978;2023-12-20T08:14:54;4.90;99.90
23385;DHT22;11865;45.394;10.978;2023-12-20T08:17:22;4.70;99.90
23385;DHT22;11865;45.394;10.978;2023-12-20T08:19:51;4.80;99.90
23385;DHT22;11865;45.394;10.978;2023-12-20T08:22:19;4.90;99.90
23385;DHT22;11865;45.394;10.978;2023-12-20T08:24:46;4.90;99.90
23385;DHT22;11865;45.394;10.978;2023-12-20T08:27:14;5.00;99.90
23385;DHT22;11865;45.394;10.978;2023-12-20T08:29:44;5.10;99.90
23385;DHT22;11865;45.394;10.978;2023-12-20T08:32:12;5.20;99.90
23385;DHT22;11865;45.394;10.978;2023-12-20T08:34:40;5.10;99.90
23385;DHT22;11865;45.394;10.978;2023-12-20T08:37:08;5.20;99.90
23385;DHT22;11865;45.394;10.978;2023-12-20T08:39:35;5.10;99.90
23385;DHT22;11865;45.394;10.978;2023-12-20T08:42:03;5.00;99.90
23385;DHT22;11865;45.394;10.978;2023-12-20T08:44:31;5.20;99.90
23385;DHT22;11865;45.394;10.978;2023-12-20T08:46:58;5.30;99.90
23385;DHT22;11865;45.394;10.978;2023-12-20T08:49:26;5.30;99.90
23385;DHT22;11865;45.394;10.978;2023-12-20T08:51:55;5.40;99.90
23385;DHT22;11865;45.394;10.978;2023-12-20T08:54:23;5.30;99.90
23385;DHT22;11865;45.394;10.978;2023-12-20T08:56:51;5.30;99.90
23385;DHT22;11865;45.394;10.978;2023-12-20T08:59:18;5.30;99.90
23385;DHT22;11865;45.394;10.978;2023-12-20T09:01:46;5.30;99.90
23385;DHT22;11865;45.394;10.978;2023-12-20T09:04:15;5.50;99.90
23385;DHT22;11865;45.394;10.978;2023-12-20T09:06:43;5.70;99.90
23385;DHT22;11865;45.394;10.978;2023-12-20T09:09:11;5.80;99.90
23385;DHT22;11865;45.394;10.978;2023-12-20T09:11:41;5.90;99.90
23385;DHT22;11865;45.394;10.978;2023-12-20T09:14:09;5.70;99.90
23385;DHT22;11865;45.394;10.978;2023-12-20T09:16:37;5.70;99.90
23385;DHT22;11865;45.394;10.978;2023-12-20T09:19:04;5.70;99.90
23385;DHT22;11865;45.394;10.978;2023-12-20T09:21:32;5.70;99.90
23385;DHT22;11865;45.394;10.978;2023-12-20T09:24:00;5.60;99.90
23385;DHT22;11865;45.394;10.978;2023-12-20T09:26:28;5.70;99.90
23385;DHT22;11865;45.394;10.978;2023-12-20T09:28:56;5.90;99.90
23385;DHT22;11865;45.394;10.978;2023-12-20T09:31:23;5.80;99.90
23385;DHT22;11865;45.394;10.978;2023-12-20T09:33:51;5.90;99.90
23385;DHT22;11865;45.394;10.978;2023-12-20T09:36:19;6.00;99.90
23385;DHT22;11865;45.394;10.978;2023-12-20T09:38:47;5.90;99.90
23385;DHT22;11865;45.394;10.978;2023-12-20T09:41:14;5.90;99.90
23385;DHT22;11865;45.394;10.978;2023-12-20T09:43:42;5.80;99.90
23385;DHT22;11865;45.394;10.978;2023-12-20T09:46:12;6.00;99.90
23385;DHT22;11865;45.394;10.978;2023-12-20T09:48:43;6.20;99.90
23385;DHT22;11865;45.394;10.978;2023-12-20T09:51:11;6.30;99.90
23385;DHT22;11865;45.394;10.978;2023-12-20T09:53:40;6.40;99.90
23385;DHT22;11865;45.394;10.978;2023-12-20T09:56:08;6.50;99.90
23385;DHT22;11865;45.394;10.978;2023-12-20T09:58:37;6.40;99.90
23385;DHT22;11865;45.394;10.978;2023-12-20T10:01:06;6.40;99.90
23385;DHT22;11865;45.394;10.978;2023-12-20T10:03:35;6.20;99.90
23385;DHT22;11865;45.394;10.978;2023-12-20T10:06:07;6.40;99.90
23385;DHT22;11865;45.394;10.978;2023-12-20T10:08:36;6.50;99.90
23385;DHT22;11865;45.394;10.978;2023-12-20T10:11:05;6.40;99.90
23385;DHT22;11865;45.394;10.978;2023-12-20T10:13:33;6.50;99.90
23385;DHT22;11865;45.394;10.978;2023-12-20T10:16:01;6.40;99.90
23385;DHT22;11865;45.394;10.978;2023-12-20T10:18:30;6.70;99.90
23385;DHT22;11865;45.394;10.978;2023-12-20T10:21:06;6.60;99.90
23385;DHT22;11865;45.394;10.978;2023-12-20T10:23:37;6.60;99.90
23385;DHT22;11865;45.394;10.978;2023-12-20T10:26:07;6.40;99.90
23385;DHT22;11865;45.394;10.978;2023-12-20T10:28:34;6.30;99.90
23385;DHT22;11865;45.394;10.978;2023-12-20T10:31:02;6.30;99.90
23385;DHT22;11865;45.394;10.978;2023-12-20T10:33:31;6.40;99.90
23385;DHT22;11865;45.394;10.978;2023-12-20T10:36:02;6.30;99.90
23385;DHT22;11865;45.394;10.978;2023-12-20T10:38:30;6.70;99.90
23385;DHT22;11865;45.394;10.978;2023-12-20T10:40:58;6.90;99.90
23385;DHT22;11865;45.394;10.978;2023-12-20T10:43:28;6.90;99.90
23385;DHT22;11865;45.394;10.978;2023-12-20T10:45:59;6.90;99.90
23385;DHT22;11865;45.394;10.978;2023-12-20T10:48:27;6.90;99.90
23385;DHT22;11865;45.394;10.978;2023-12-20T10:50:58;6.80;99.90
23385;DHT22;11865;45.394;10.978;2023-12-20T10:53:25;6.70;99.90
23385;DHT22;11865;45.394;10.978;2023-12-20T10:55:55;6.80;99.90
23385;DHT22;11865;45.394;10.978;2023-12-20T10:58:24;6.70;99.90
23385;DHT22;11865;45.394;10.978;2023-12-20T11:00:59;6.60;99.90
23385;DHT22;11865;45.394;10.978;2023-12-20T11:03:27;6.50;99.90
23385;DHT22;11865;45.394;10.978;2023-12-20T11:06:07;6.30;99.90
23385;DHT22;11865;45.394;10.978;2023-12-20T11:08:44;6.50;99.90
23385;DHT22;11865;45.394;10.978;2023-12-20T11:11:28;6.40;99.90
23385;DHT22;11865;45.394;10.978;2023-12-20T11:14:02;6.40;99.90
23385;DHT22;11865;45.394;10.978;2023-12-20T11:16:39;6.50;99.90
23385;DHT22;11865;45.394;10.978;2023-12-20T11:19:21;6.60;99.90
23385;DHT22;11865;45.394;10.978;2023-12-20T11:21:48;6.60;99.90
23385;DHT22;11865;45.394;10.978;2023-12-20T11:24:22;6.80;99.90
23385;DHT22;11865;45.394;10.978;2023-12-20T11:26:49;6.90;99.90
23385;DHT22;11865;45.394;10.978;2023-12-20T11:29:35;7.10;99.90
23385;DHT22;11865;45.394;10.978;2023-12-20T11:32:27;7.10;99.90
23385;DHT22;11865;45.394;10.978;2023-12-20T11:35:00;6.80;99.90
23385;DHT22;11865;45.394;10.978;2023-12-20T11:37:30;7.00;99.90
23385;DHT22;11865;45.394;10.978;2023-12-20T11:40:07;7.10;99.90
23385;DHT22;11865;45.394;10.978;2023-12-20T11:42:45;7.10;99.90
23385;DHT22;11865;45.394;10.978;2023-12-20T11:45:15;7.10;99.90
23385;DHT22;11865;45.394;10.978;2023-12-20T11:47:46;7.30;99.90
23385;DHT22;11865;45.394;10.978;2023-12-20T11:50:15;7.30;99.90
23385;DHT22;11865;45.394;10.978;2023-12-20T11:52:43;7.40;99.90
23385;DHT22;11865;45.394;10.978;2023-12-20T11:55:11;7.60;99.90
23385;DHT22;11865;45.394;10.978;2023-12-20T11:57:38;7.70;99.90
23385;DHT22;11865;45.394;10.978;2023-12-20T12:00:06;7.70;99.90
23385;DHT22;11865;45.394;10.978;2023-12-20T12:02:40;7.90;99.90
23385;DHT22;11865;45.394;10.978;2023-12-20T12:05:09;7.90;99.90
23385;DHT22;11865;45.394;10.978;2023-12-20T12:07:37;7.70;99.90
23385;DHT22;11865;45.394;10.978;2023-12-20T12:10:05;7.70;99.90
23385;DHT22;11865;45.394;10.978;2023-12-20T12:12:33;7.90;99.90
23385;DHT22;11865;45.394;10.978;2023-12-20T12:15:01;7.80;99.90
23385;DHT22;11865;45.394;10.978;2023-12-20T12:17:30;7.90;99.90
23385;DHT22;11865;45.394;10.978;2023-12-20T12:20:05;8.10;99.90
23385;DHT22;11865;45.394;10.978;2023-12-20T12:22:34;8.00;99.90
23385;DHT22;11865;45.394;10.978;2023-12-20T12:25:10;8.00;99.90
23385;DHT22;11865;45.394;10.978;2023-12-20T12:27:42;8.10;99.90
23385;DHT22;11865;45.394;10.978;2023-12-20T12:30:10;8.00;99.90
23385;DHT22;11865;45.394;10.978;2023-12-20T12:32:40;8.10;99.90
23385;DHT22;11865;45.394;10.978;2023-12-20T12:35:09;8.20;99.90
23385;DHT22;11865;45.394;10.978;2023-12-20T12:37:38;8.20;99.90
23385;DHT22;11865;45.394;10.978;2023-12-20T12:40:14;8.20;99.90
23385;DHT22;11865;45.394;10.978;2023-12-20T12:42:44;8.10;99.90
23385;DHT22;11865;45.394;10.978;2023-12-20T12:45:12;8.10;99.90
23385;DHT22;11865;45.394;10.978;2023-12-20T12:47:40;7.90;99.90
23385;DHT22;11865;45.394;10.978;2023-12-20T12:50:08;8.00;99.90
23385;DHT22;11865;45.394;10.978;2023-12-20T12:52:36;7.90;99.90
23385;DHT22;11865;45.394;10.978;2023-12-20T12:55:05;7.90;99.90
23385;DHT22;11865;45.394;10.978;2023-12-20T12:57:33;7.90;99.90
23385;DHT22;11865;45.394;10.978;2023-12-20T13:00:01;8.00;99.90
23385;DHT22;11865;45.394;10.978;2023-12-20T13:02:30;7.90;99.90
23385;DHT22;11865;45.394;10.978;2023-12-20T13:04:58;8.00;99.90
23385;DHT22;11865;45.394;10.978;2023-12-20T13:07:26;8.00;99.90
23385;DHT22;11865;45.394;10.978;2023-12-20T13:09:54;7.90;99.90
23385;DHT22;11865;45.394;10.978;2023-12-20T13:12:22;8.00;99.90
23385;DHT22;11865;45.394;10.978;2023-12-20T13:14:49;8.20;99.90
23385;DHT22;11865;45.394;10.978;2023-12-20T13:17:17;8.10;99.90
23385;DHT22;11865;45.394;10.978;2023-12-20T13:19:45;8.00;99.90
23385;DHT22;11865;45.394;10.978;2023-12-20T13:22:12;8.20;99.90
23385;DHT22;11865;45.394;10.978;2023-12-20T13:24:40;8.20;99.90
23385;DHT22;11865;45.394;10.978;2023-12-20T13:27:08;8.20;99.90
23385;DHT22;11865;45.394;10.978;2023-12-20T13:29:35;8.20;99.90
23385;DHT22;11865;45.394;10.978;2023-12-20T13:32:06;8.30;99.90
23385;DHT22;11865;45.394;10.978;2023-12-20T13:34:34;8.50;99.90
23385;DHT22;11865;45.394;10.978;2023-12-20T13:37:02;8.50;99.90
23385;DHT22;11865;45.394;10.978;2023-12-20T13:39:30;8.60;99.90
23385;DHT22;11865;45.394;10.978;2023-12-20T13:41:58;8.60;99.90
23385;DHT22;11865;45.394;10.978;2023-12-20T13:44:27;8.60;99.90
23385;DHT22;11865;45.394;10.978;2023-12-20T13:46:55;8.60;99.90
23385;DHT22;11865;45.394;10.978;2023-12-20T13:49:22;8.70;99.90
23385;DHT22;11865;45.394;10.978;2023-12-20T13:51:54;8.70;99.90
23385;DHT22;11865;45.394;10.978;2023-12-20T13:54:22;8.60;99.90
23385;DHT22;11865;45.394;10.978;2023-12-20T13:56:50;8.40;99.90
23385;DHT22;11865;45.394;10.978;2023-12-20T13:59:35;8.30;99.90
23385;DHT22;11865;45.394;10.978;2023-12-20T14:02:03;8.20;99.90
23385;DHT22;11865;45.394;10.978;2023-12-20T14:04:31;8.20;99.90
23385;DHT22;11865;45.394;10.978;2023-12-20T14:07:10;8.20;99.90
23385;DHT22;11865;45.394;10.978;2023-12-20T14:09:40;8.40;99.90
23385;DHT22;11865;45.394;10.978;2023-12-20T14:12:14;8.50;99.90
23385;DHT22;11865;45.394;10.978;2023-12-20T14:14:42;8.50;99.90
23385;DHT22;11865;45.394;10.978;2023-12-20T14:17:09;8.40;99.90
23385;DHT22;11865;45.394;10.978;2023-12-20T14:19:37;8.40;99.90
23385;DHT22;11865;45.394;10.978;2023-12-20T14:22:05;8.30;99.90
23385;DHT22;11865;45.394;10.978;2023-12-20T14:24:35;8.00;99.90
23385;DHT22;11865;45.394;10.978;2023-12-20T14:27:03;7.90;99.90
23385;DHT22;11865;45.394;10.978;2023-12-20T14:29:31;8.00;99.90
23385;DHT22;11865;45.394;10.978;2023-12-20T14:31:58;8.00;99.90
23385;DHT22;11865;45.394;10.978;2023-12-20T14:34:26;8.00;99.90
23385;DHT22;11865;45.394;10.978;2023-12-20T14:36:53;8.00;99.90
23385;DHT22;11865;45.394;10.978;2023-12-20T14:39:21;7.70;99.90
23385;DHT22;11865;45.394;10.978;2023-12-20T14:41:50;7.80;99.90
23385;DHT22;11865;45.394;10.978;2023-12-20T14:44:17;7.70;99.90
23385;DHT22;11865;45.394;10.978;2023-12-20T14:46:45;7.60;99.90
23385;DHT22;11865;45.394;10.978;2023-12-20T14:49:13;7.60;99.90
23385;DHT22;11865;45.394;10.978;2023-12-20T14:51:44;7.70;99.90
23385;DHT22;11865;45.394;10.978;2023-12-20T14:54:11;7.70;99.90
23385;DHT22;11865;45.394;10.978;2023-12-20T14:56:39;7.60;99.90
23385;DHT22;11865;45.394;10.978;2023-12-20T14:59:07;7.30;99.90
23385;DHT22;11865;45.394;10.978;2023-12-20T15:01:35;7.30;99.90
23385;DHT22;11865;45.394;10.978;2023-12-20T15:04:04;7.30;99.90
23385;DHT22;11865;45.394;10.978;2023-12-20T15:06:31;7.40;99.90
23385;DHT22;11865;45.394;10.978;2023-12-20T15:09:00;7.40;99.90
23385;DHT22;11865;45.394;10.978;2023-12-20T15:11:30;7.30;99.90
23385;DHT22;11865;45.394;10.978;2023-12-20T15:13:58;7.10;99.90
23385;DHT22;11865;45.394;10.978;2023-12-20T15:16:27;7.00;99.90
23385;DHT22;11865;45.394;10.978;2023-12-20T15:18:55;6.60;99.90
23385;DHT22;11865;45.394;10.978;2023-12-20T15:21:23;6.50;99.90
23385;DHT22;11865;45.394;10.978;2023-12-20T15:23:59;6.50;99.90
23385;DHT22;11865;45.394;10.978;2023-12-20T15:26:33;6.30;99.90
23385;DHT22;11865;45.394;10.978;2023-12-20T15:29:01;6.00;99.90
23385;DHT22;11865;45.394;10.978;2023-12-20T15:31:28;5.80;99.90
23385;DHT22;11865;45.394;10.978;2023-12-20T15:33:56;5.60;99.90
23385;DHT22;11865;45.394;10.978;2023-12-20T15:36:24;5.50;99.90
23385;DHT22;11865;45.394;10.978;2023-12-20T15:38:53;5.60;99.90